CEFAS Endeavour — VQHF3 — position and weather

sailwx.info

Track history (hours):
 
Tides and Currents Weather Stations Pressure Air Temp Water Temp Dewpoint Dewpoint Depression Visibility Wind Speed Wind Dir Waves Ship Positions

Oceanographic research ship CEFAS Endeavour (UK)

Detailed information on ship capabilities available from University of Delaware's Ocean Information Center.

Last reported at 2017-Jun-26 17:00 UTC. Time now 2017-Jun-26 17:04 UTC.
Position N 53°01' E 001°29'.

Length 74 m; draft 5.2 m.

Type: Ship. MMSI: 235005270.

Date/timePositionNaut miles runAvg speedWind from/ knotsBaromVisibWave heightAir tempDewpointWater temp
2017-Jun-26 17:00N 53°01' E 001°29'510.2
2017-Jun-26 16:30N 53°05' E 001°25'510.3
2017-Jun-26 16:00N 53°09' E 001°20'64 7.5
2017-Jun-26 07:25N 54°03' E 000°21'410.7
2017-Jun-26 07:00N 54°06' E 000°16'611.1
2017-Jun-26 06:30N 54°10' E 000°09'611.4
2017-Jun-26 06:00N 54°14' E 000°03'4 8.8
2017-Jun-26 05:30N 54°17' W 000°03'4 8.5
2017-Jun-26 05:00N 54°20' W 000°08'5 9.0
2017-Jun-26 04:30N 54°24' W 000°13'510.3
2017-Jun-26 04:00N 54°27' W 000°20'510.1
2017-Jun-26 03:30N 54°31' W 000°26'25 9.0
2017-Jun-26 00:42N 54°47' W 000°60'10 5.3
2017-Jun-25 22:49N 54°56' W 000°53'2 6.4
2017-Jun-25 22:28N 54°58' W 000°51'0 0.5
2017-Jun-25 21:56N 54°58' W 000°51'12 8.7
2017-Jun-25 20:33N 55°10' W 000°57'1 9.1
2017-Jun-25 20:30N 55°10' W 000°57'9 9.0
2017-Jun-25 19:33N 55°18' W 001°01'0 6.9
2017-Jun-25 19:29N 55°19' W 001°02'0 0.5
2017-Jun-25 19:00N 55°19' W 001°01'4 8.8
2017-Jun-25 18:30N 55°19' W 001°09'1 2.7
2017-Jun-25 18:00N 55°18' W 001°11'3 6.2
2017-Jun-25 17:31N 55°21' W 001°12'2 2.9
2017-Jun-25 16:56N 55°22' W 001°09'0 0.6
2017-Jun-25 16:30N 55°22' W 001°09'3 5.6
2017-Jun-25 16:00N 55°23' W 001°13'1 1.0
2017-Jun-25 15:30N 55°23' W 001°14'4 7.5
2017-Jun-25 15:00N 55°26' W 001°09'6 6.2
2017-Jun-25 14:00N 55°30' W 001°02'3 5.1
2017-Jun-25 13:29N 55°28' W 001°04'4 8.1
2017-Jun-25 13:00N 55°24' W 001°07'4 8.2
2017-Jun-25 12:30N 55°21' W 001°09'4 8.4
2017-Jun-25 12:00N 55°17' W 001°13'1 1.0
2017-Jun-25 11:30N 55°16' W 001°13'3 5.6
2017-Jun-25 11:00N 55°15' W 001°09'0 0.7
2017-Jun-25 10:30N 55°15' W 001°09'2 2.5
2017-Jun-25 09:49N 55°14' W 001°07'0 1.4
2017-Jun-25 09:30N 55°14' W 001°07'3 5.0
2017-Jun-25 09:00N 55°12' W 001°03'0 0.8
2017-Jun-25 08:30N 55°12' W 001°03'0 0.6
2017-Jun-25 07:57N 55°11' W 001°03'3 6.3
2017-Jun-25 07:30N 55°13' W 000°59'0 1.0
2017-Jun-25 07:00N 55°13' W 000°58'1 2.4
2017-Jun-25 06:27N 55°13' W 001°00'0 0.4
2017-Jun-25 06:00N 55°14' W 001°00'3 5.2
2017-Jun-25 05:30N 55°16' W 000°57'1 2.1
2017-Jun-25 05:00N 55°16' W 000°56'3 6.2
2017-Jun-25 04:30N 55°16' W 001°01'0 0.6
2017-Jun-25 04:00N 55°16' W 001°01'3 6.2
2017-Jun-25 03:30N 55°18' W 001°05'0 0.5
2017-Jun-25 03:00N 55°18' W 001°05'4 7.6
2017-Jun-25 02:30N 55°18' W 001°11'0 0.9
2017-Jun-25 02:01N 55°18' W 001°11'4 8.0
2017-Jun-25 01:31N 55°22' W 001°09'0 0.5
2017-Jun-25 01:00N 55°22' W 001°09'3 6.3
2017-Jun-25 00:30N 55°23' W 001°14'0 0.4
2017-Jun-24 23:59N 55°23' W 001°14'3 5.9
2017-Jun-24 23:30N 55°21' W 001°17'0 0.3
2017-Jun-24 23:00N 55°21' W 001°17'3 4.7
2017-Jun-24 22:21N 55°21' W 001°12'0 1.0
2017-Jun-24 22:00N 55°21' W 001°11'3 3.6
2017-Jun-24 21:18N 55°20' W 001°07'0 1.0
2017-Jun-24 21:00N 55°20' W 001°07'4 8.1
2017-Jun-24 20:30N 55°18' W 001°00'1 1.9
2017-Jun-24 20:00N 55°19' W 001°01'4 4.3
2017-Jun-24 19:02N 55°23' W 001°04'0 2.5
2017-Jun-24 19:01N 55°23' W 001°04'1 2.7
2017-Jun-24 18:28N 55°23' W 001°02'3 6.0
2017-Jun-24 18:00N 55°25' W 000°58'4 4.5
2017-Jun-24 17:13N 55°27' W 001°03'0 0.6
2017-Jun-24 17:00N 55°27' W 001°03'2 3.3
2017-Jun-24 16:30N 55°26' W 001°06'3 6.4
2017-Jun-24 16:00N 55°25' W 001°11'3 6.3
2017-Jun-24 15:30N 55°25' W 001°16'3 6.1
2017-Jun-24 15:00N 55°24' W 001°22'6 5.7
2017-Jun-24 13:58N 55°23' W 001°32'0 0.0
2017-Jun-24 13:28N 55°23' W 001°32'0 0.2
2017-Jun-24 12:55N 55°23' W 001°32'0 0.0
2017-Jun-24 12:25N 55°23' W 001°32'0 0.1
2017-Jun-24 11:55N 55°23' W 001°32'0 0.0
2017-Jun-24 11:28N 55°23' W 001°32'0 0.0
2017-Jun-24 10:58N 55°23' W 001°32'0 0.1
2017-Jun-24 10:25N 55°23' W 001°32'0 0.0
2017-Jun-24 09:58N 55°23' W 001°32'0 0.1
2017-Jun-24 09:25N 55°23' W 001°32'0 0.0
2017-Jun-24 08:58N 55°23' W 001°32'0 0.0
2017-Jun-24 08:19N 55°23' W 001°32'0 0.0
2017-Jun-24 07:58N 55°23' W 001°32'0 0.1
2017-Jun-24 07:25N 55°23' W 001°32'0 0.0
2017-Jun-24 06:55N 55°23' W 001°32'0 0.0
2017-Jun-24 06:28N 55°23' W 001°32'0 0.0
2017-Jun-24 05:58N 55°23' W 001°32'0 0.0
2017-Jun-24 05:28N 55°23' W 001°32'0 0.1
2017-Jun-24 04:58N 55°23' W 001°32'0 0.1
2017-Jun-24 04:25N 55°23' W 001°32'0 0.0
2017-Jun-24 03:58N 55°23' W 001°32'0 0.0
2017-Jun-24 03:28N 55°23' W 001°32'0 0.0
2017-Jun-24 02:55N 55°23' W 001°32'0 0.0
2017-Jun-24 02:25N 55°23' W 001°32'0 0.0
2017-Jun-24 01:55N 55°23' W 001°32'0 0.0
2017-Jun-24 01:25N 55°23' W 001°32'0 0.0
2017-Jun-24 00:58N 55°23' W 001°32'0 0.1
2017-Jun-24 00:28N 55°23' W 001°32'0 0.0
2017-Jun-23 23:58N 55°23' W 001°32'0 0.1
2017-Jun-23 23:28N 55°23' W 001°32'0 0.0
2017-Jun-23 22:55N 55°23' W 001°32'0 0.1
2017-Jun-23 22:28N 55°23' W 001°32'0 0.0
2017-Jun-23 21:58N 55°23' W 001°32'0 0.0
2017-Jun-23 21:25N 55°23' W 001°32'0 0.0
2017-Jun-23 20:55N 55°23' W 001°32'0 0.0
2017-Jun-23 20:25N 55°23' W 001°32'0 0.0
2017-Jun-23 19:55N 55°23' W 001°32'1 2.9
2017-Jun-23 19:30N 55°23' W 001°30'5 9.2
2017-Jun-23 19:00N 55°24' W 001°22'5 9.1
2017-Jun-23 18:30N 55°25' W 001°14'5 8.9
2017-Jun-23 18:00N 55°26' W 001°06'2 1.2
2017-Jun-23 15:59N 55°27' W 001°02'0 0.6
2017-Jun-23 15:29N 55°27' W 001°03'0 0.0
2017-Jun-23 15:00N 55°27' W 001°03'3 2.5
2017-Jun-23 13:59N 55°27' W 001°07'0 0.5
2017-Jun-23 13:29N 55°27' W 001°07'3 5.4
2017-Jun-23 12:56N 55°29' W 001°03'1 3.4
2017-Jun-23 12:30N 55°30' W 001°02'3 3.8
2017-Jun-23 11:41N 55°32' W 001°06'0 0.6
2017-Jun-23 11:24N 55°33' W 001°06'5 3.1
2017-Jun-23 09:49N 55°33' W 000°57'9 2.3
2017-Jun-23 05:59N 55°26' W 000°48'4 0.8
2017-Jun-23 00:35N 55°21' W 000°49'4 8.0
2017-Jun-23 00:09N 55°22' W 000°55'0 0.6
2017-Jun-22 23:58N 55°22' W 000°55'1 1.5
2017-Jun-22 23:30N 55°22' W 000°54'0 0.6
2017-Jun-22 23:00N 55°22' W 000°54'1 1.8
2017-Jun-22 22:21N 55°21' W 000°52'3 3.3
2017-Jun-22 21:28N 55°18' W 000°49'1 2.0
2017-Jun-22 20:44N 55°17' W 000°47'5 2.4
2017-Jun-22 18:47N 55°13' W 000°47'3 8.3
2017-Jun-22 18:25N 55°12' W 000°52'1 2.5
2017-Jun-22 17:53N 55°12' W 000°54'2 3.0
2017-Jun-22 17:15N 55°11' W 000°57'2 8.9
2017-Jun-22 17:00N 55°10' W 001°01'2 4.2
2017-Jun-22 16:30N 55°10' W 001°04'1 2.5
2017-Jun-22 15:58N 55°10' W 001°07'0 0.6
2017-Jun-22 15:30N 55°10' W 001°07'2 4.1
2017-Jun-22 15:00N 55°12' W 001°09'2 4.6
2017-Jun-22 14:29N 55°13' W 001°13'2 2.3
2017-Jun-22 13:30N 55°11' W 001°14'1 2.2
2017-Jun-22 13:00N 55°11' W 001°15'1 1.7
2017-Jun-22 12:30N 55°12' W 001°16'0 0.7
2017-Jun-22 12:00N 55°11' W 001°17'1 2.3
2017-Jun-22 11:30N 55°11' W 001°19'3 5.5
2017-Jun-22 11:00N 55°09' W 001°18'2 3.4
2017-Jun-22 10:30N 55°07' W 001°17'2 3.5
2017-Jun-22 10:00N 55°08' W 001°15'0 0.8
2017-Jun-22 09:30N 55°07' W 001°14'1 2.3
2017-Jun-22 09:00N 55°07' W 001°12'2 4.6
2017-Jun-22 08:30N 55°08' W 001°09'0 0.2
2017-Jun-22 07:57N 55°08' W 001°08'1 1.5
2017-Jun-22 07:30N 55°08' W 001°07'0 0.5
2017-Jun-22 06:58N 55°08' W 001°08'0 0.1
2017-Jun-22 06:30N 55°08' W 001°08'2 4.7
2017-Jun-22 06:00N 55°08' W 001°04'0 0.3
2017-Jun-22 05:30N 55°08' W 001°04'3 3.2
2017-Jun-22 04:39N 55°07' W 001°00'2 7.2
2017-Jun-22 04:23N 55°08' W 000°58'1 1.7
2017-Jun-22 03:51N 55°08' W 000°56'1 2.1
2017-Jun-22 03:30N 55°08' W 000°55'6 3.7
2017-Jun-22 02:00N 55°06' W 000°46'4 7.6
2017-Jun-22 01:30N 55°02' W 000°49'0 0.7
2017-Jun-22 00:56N 55°02' W 000°49'4 7.2
2017-Jun-22 00:24N 55°04' W 000°55'0 0.6
2017-Jun-21 23:59N 55°04' W 000°55'1 1.5
2017-Jun-21 23:06N 55°05' W 000°55'2 5.0
2017-Jun-21 22:46N 55°05' W 000°58'0 0.6
2017-Jun-21 22:30N 55°05' W 000°58'2 4.5
2017-Jun-21 22:00N 55°03' W 001°01'3 1.7
2017-Jun-21 20:05N 55°06' W 001°04'1 8.0
2017-Jun-21 20:00N 55°05' W 001°05'1 1.5
2017-Jun-21 19:30N 55°04' W 001°06'1 1.6
2017-Jun-21 18:55N 55°04' W 001°07'1 3.3
2017-Jun-21 18:30N 55°05' W 001°09'1 1.4
2017-Jun-21 18:00N 55°05' W 001°11'2 4.4
2017-Jun-21 17:30N 55°04' W 001°14'1 1.6
2017-Jun-21 17:00N 55°03' W 001°15'1 1.9
2017-Jun-21 16:29N 55°02' W 001°15'0 0.1
2017-Jun-21 16:00N 55°02' W 001°15'2 4.2
2017-Jun-21 15:30N 54°60' W 001°15'0 0.4
2017-Jun-21 15:00N 54°60' W 001°15'1 2.9
2017-Jun-21 14:30N 54°60' W 001°12'1 1.3
2017-Jun-21 13:30N 55°01' W 001°11'1 2.9
2017-Jun-21 13:00N 55°02' W 001°09'2 4.4
2017-Jun-21 12:30N 55°02' W 001°06'0 0.9
2017-Jun-21 12:00N 55°01' W 001°05'3 5.2
2017-Jun-21 11:30N 54°60' W 001°01'1 2.5
2017-Jun-21 11:00N 55°00' W 000°60'1 1.6
2017-Jun-21 10:30N 55°01' W 000°58'3 5.1
2017-Jun-21 10:00N 54°59' W 000°57'0 0.5
2017-Jun-21 09:29N 54°59' W 000°57'1 1.0
2017-Jun-21 08:52N 54°59' W 000°56'3 8.1
2017-Jun-21 08:30N 54°58' W 000°52'0 0.8
2017-Jun-21 07:58N 54°58' W 000°51'3 7.5
2017-Jun-21 07:30N 54°57' W 000°57'0 0.5
2017-Jun-21 06:54N 54°57' W 000°57'1 2.8
2017-Jun-21 06:30N 54°56' W 000°59'1 1.0
2017-Jun-21 06:00N 54°56' W 000°59'1 2.4
2017-Jun-21 05:29N 54°56' W 001°01'2 3.4
2017-Jun-21 05:00N 54°57' W 001°04'1 2.1
2017-Jun-21 04:30N 54°58' W 001°05'2 3.1
2017-Jun-21 04:00N 54°58' W 001°07'1 2.7
2017-Jun-21 03:30N 54°57' W 001°09'2 3.1
2017-Jun-21 03:00N 54°59' W 001°09'0 0.1
2017-Jun-21 02:30N 54°59' W 001°09'1 2.8
2017-Jun-21 02:00N 54°58' W 001°11'1 2.3
2017-Jun-21 01:30N 54°58' W 001°13'1 1.8
2017-Jun-21 01:00N 54°59' W 001°13'0 0.8
2017-Jun-21 00:30N 54°58' W 001°13'1 2.3
2017-Jun-21 00:00N 54°58' W 001°15'2 3.6
2017-Jun-20 23:30N 54°57' W 001°14'0 0.9
2017-Jun-20 23:00N 54°56' W 001°14'2 3.1
2017-Jun-20 22:30N 54°56' W 001°12'0 0.9
2017-Jun-20 22:00N 54°56' W 001°11'1 2.8
2017-Jun-20 21:30N 54°54' W 001°12'2 3.1
2017-Jun-20 21:00N 54°55' W 001°14'1 2.1
2017-Jun-20 20:30N 54°54' W 001°14'2 3.5
2017-Jun-20 20:00N 54°52' W 001°13'2 3.5
2017-Jun-20 19:30N 54°52' W 001°10'0 0.4
2017-Jun-20 19:00N 54°52' W 001°10'0 0.2
2017-Jun-20 18:30N 54°52' W 001°10'1 2.5
2017-Jun-20 18:00N 54°53' W 001°09'3 5.8
2017-Jun-20 17:30N 54°52' W 001°04'1 1.2
2017-Jun-20 17:00N 54°53' W 001°03'2 1.6
2017-Jun-20 15:50N 54°54' W 001°00'2 5.6
2017-Jun-20 15:30N 54°53' W 000°57'2 2.8
2017-Jun-20 14:54N 54°55' W 000°56'0 0.5
2017-Jun-20 14:30N 54°55' W 000°56'2 2.3
2017-Jun-20 13:30N 54°54' W 000°53'4 4.0
2017-Jun-20 12:37N 54°51' W 000°57'1 7.2
2017-Jun-20 12:30N 54°51' W 000°58'3 5.7
2017-Jun-20 12:00N 54°50' W 001°03'1 2.9
2017-Jun-20 11:30N 54°51' W 001°05'0 0.7
2017-Jun-20 11:00N 54°50' W 001°06'2 5.0
2017-Jun-20 10:30N 54°50' W 001°10'1 2.9
2017-Jun-20 10:00N 54°50' W 001°12'1 1.1
2017-Jun-20 09:30N 54°50' W 001°12'3 5.7
2017-Jun-20 09:00N 54°49' W 001°08'1 1.7
2017-Jun-20 08:30N 54°49' W 001°09'1 1.6
2017-Jun-20 08:00N 54°48' W 001°10'2 3.5
2017-Jun-20 07:30N 54°47' W 001°09'1 1.6
2017-Jun-20 06:59N 54°47' W 001°08'1 1.9
2017-Jun-20 06:30N 54°47' W 001°06'3 4.2
2017-Jun-20 05:44N 54°48' W 001°01'1 5.6
2017-Jun-20 05:30N 54°47' W 001°02'0 0.1
2017-Jun-20 04:59N 54°47' W 001°02'4 7.2
2017-Jun-20 04:28N 54°48' W 000°55'3 3.6
2017-Jun-20 03:39N 54°50' W 000°51'0 0.5
2017-Jun-20 03:12N 54°49' W 000°51'1 5.6
2017-Jun-20 03:00N 54°48' W 000°50'2 3.3
2017-Jun-20 02:30N 54°47' W 000°49'2 4.6
2017-Jun-20 01:59N 54°47' W 000°53'3 6.1
2017-Jun-20 01:30N 54°46' W 000°58'1 1.4
2017-Jun-20 01:00N 54°46' W 000°59'2 3.8
2017-Jun-20 00:30N 54°46' W 001°02'2 4.0
2017-Jun-20 00:00N 54°46' W 001°06'0 0.6
2017-Jun-19 23:30N 54°45' W 001°06'1 2.7
2017-Jun-19 23:00N 54°44' W 001°06'1 1.0
2017-Jun-19 22:23N 54°44' W 001°05'1 3.1
2017-Jun-19 22:00N 54°44' W 001°03'0 0.3
2017-Jun-19 21:30N 54°44' W 001°03'3 4.6
2017-Jun-19 20:52N 54°44' W 000°58'0 0.5
2017-Jun-19 20:28N 54°44' W 000°58'1 1.1
2017-Jun-19 20:00N 54°44' W 000°57'1911.7
2017-Jun-19 18:25N 54°33' W 000°31'512.8
2017-Jun-19 18:00N 54°30' W 000°24'612.9
2017-Jun-19 17:30N 54°25' W 000°16'612.7
2017-Jun-19 17:00N 54°21' W 000°08'612.4
2017-Jun-19 16:30N 54°16' W 000°01'612.7
2017-Jun-19 16:00N 54°12' E 000°07'612.3
2017-Jun-19 15:30N 54°07' E 000°14'612.0
2017-Jun-19 15:00N 54°03' E 000°22'611.7
2017-Jun-19 14:30N 53°59' E 000°29'3210.8
2017-Jun-19 11:35N 53°32' E 000°57'410.9
2017-Jun-19 11:15N 53°29' E 001°00'311.0
2017-Jun-19 10:59N 53°27' E 001°03'1211.7
2017-Jun-19 09:58N 53°16' E 001°13'612.4
2017-Jun-19 09:27N 53°11' E 001°19'612.9
2017-Jun-19 09:00N 53°06' E 001°24'712.9
2017-Jun-19 08:30N 53°00' E 001°29'713.3
2017-Jun-19 08:00N 52°55' E 001°35'713.0
2017-Jun-19 07:30N 52°49' E 001°40'612.6
2017-Jun-19 07:00N 52°44' E 001°46'611.9
2017-Jun-19 06:30N 52°38' E 001°46'510.6
2017-Jun-19 06:00N 52°32' E 001°46'4 8.4
2017-Jun-19 05:30N 52°28' E 001°46'1 1.2
2017-Jun-19 04:59N 52°28' E 001°45'0 0.0
2017-Jun-19 04:29N 52°28' E 001°45'0 0.0
2017-Jun-19 03:38N 52°28' E 001°45'0 0.0
2017-Jun-19 03:29N 52°28' E 001°45'0 0.0
2017-Jun-18 19:54N 52°28' E 001°45'0 0.0
2017-Jun-18 11:29N 52°28' E 001°45'  
Track history (hours):
 
Tides and Currents Weather Stations Pressure Air Temp Water Temp Dewpoint Dewpoint Depression Visibility Wind Speed Wind Dir Waves Ship Positions

Oceanographic research ship CEFAS Endeavour (UK)

Detailed information on ship capabilities available from University of Delaware's Ocean Information Center.

Last reported at 2017-Jun-26 17:00 UTC. Time now 2017-Jun-26 17:04 UTC.
Position N 53°01' E 001°29'.

Length 74 m; draft 5.2 m.

Type: Ship. MMSI: 235005270.

Date/timePositionNaut miles runAvg speedWind from/ knotsBaromVisibWave heightAir tempDewpointWater temp
2017-Jun-26 17:00N 53°01' E 001°29'510.2
2017-Jun-26 16:30N 53°05' E 001°25'510.3
2017-Jun-26 16:00N 53°09' E 001°20'64 7.5
2017-Jun-26 07:25N 54°03' E 000°21'410.7
2017-Jun-26 07:00N 54°06' E 000°16'611.1
2017-Jun-26 06:30N 54°10' E 000°09'611.4
2017-Jun-26 06:00N 54°14' E 000°03'4 8.8
2017-Jun-26 05:30N 54°17' W 000°03'4 8.5
2017-Jun-26 05:00N 54°20' W 000°08'5 9.0
2017-Jun-26 04:30N 54°24' W 000°13'510.3
2017-Jun-26 04:00N 54°27' W 000°20'510.1
2017-Jun-26 03:30N 54°31' W 000°26'25 9.0
2017-Jun-26 00:42N 54°47' W 000°60'10 5.3
2017-Jun-25 22:49N 54°56' W 000°53'2 6.4
2017-Jun-25 22:28N 54°58' W 000°51'0 0.5
2017-Jun-25 21:56N 54°58' W 000°51'12 8.7
2017-Jun-25 20:33N 55°10' W 000°57'1 9.1
2017-Jun-25 20:30N 55°10' W 000°57'9 9.0
2017-Jun-25 19:33N 55°18' W 001°01'0 6.9
2017-Jun-25 19:29N 55°19' W 001°02'0 0.5
2017-Jun-25 19:00N 55°19' W 001°01'4 8.8
2017-Jun-25 18:30N 55°19' W 001°09'1 2.7
2017-Jun-25 18:00N 55°18' W 001°11'3 6.2
2017-Jun-25 17:31N 55°21' W 001°12'2 2.9
2017-Jun-25 16:56N 55°22' W 001°09'0 0.6
2017-Jun-25 16:30N 55°22' W 001°09'3 5.6
2017-Jun-25 16:00N 55°23' W 001°13'1 1.0
2017-Jun-25 15:30N 55°23' W 001°14'4 7.5
2017-Jun-25 15:00N 55°26' W 001°09'6 6.2
2017-Jun-25 14:00N 55°30' W 001°02'3 5.1
2017-Jun-25 13:29N 55°28' W 001°04'4 8.1
2017-Jun-25 13:00N 55°24' W 001°07'4 8.2
2017-Jun-25 12:30N 55°21' W 001°09'4 8.4
2017-Jun-25 12:00N 55°17' W 001°13'1 1.0
2017-Jun-25 11:30N 55°16' W 001°13'3 5.6
2017-Jun-25 11:00N 55°15' W 001°09'0 0.7
2017-Jun-25 10:30N 55°15' W 001°09'2 2.5
2017-Jun-25 09:49N 55°14' W 001°07'0 1.4
2017-Jun-25 09:30N 55°14' W 001°07'3 5.0
2017-Jun-25 09:00N 55°12' W 001°03'0 0.8
2017-Jun-25 08:30N 55°12' W 001°03'0 0.6
2017-Jun-25 07:57N 55°11' W 001°03'3 6.3
2017-Jun-25 07:30N 55°13' W 000°59'0 1.0
2017-Jun-25 07:00N 55°13' W 000°58'1 2.4
2017-Jun-25 06:27N 55°13' W 001°00'0 0.4
2017-Jun-25 06:00N 55°14' W 001°00'3 5.2
2017-Jun-25 05:30N 55°16' W 000°57'1 2.1
2017-Jun-25 05:00N 55°16' W 000°56'3 6.2
2017-Jun-25 04:30N 55°16' W 001°01'0 0.6
2017-Jun-25 04:00N 55°16' W 001°01'3 6.2
2017-Jun-25 03:30N 55°18' W 001°05'0 0.5
2017-Jun-25 03:00N 55°18' W 001°05'4 7.6
2017-Jun-25 02:30N 55°18' W 001°11'0 0.9
2017-Jun-25 02:01N 55°18' W 001°11'4 8.0
2017-Jun-25 01:31N 55°22' W 001°09'0 0.5
2017-Jun-25 01:00N 55°22' W 001°09'3 6.3
2017-Jun-25 00:30N 55°23' W 001°14'0 0.4
2017-Jun-24 23:59N 55°23' W 001°14'3 5.9
2017-Jun-24 23:30N 55°21' W 001°17'0 0.3
2017-Jun-24 23:00N 55°21' W 001°17'3 4.7
2017-Jun-24 22:21N 55°21' W 001°12'0 1.0
2017-Jun-24 22:00N 55°21' W 001°11'3 3.6
2017-Jun-24 21:18N 55°20' W 001°07'0 1.0
2017-Jun-24 21:00N 55°20' W 001°07'4 8.1
2017-Jun-24 20:30N 55°18' W 001°00'1 1.9
2017-Jun-24 20:00N 55°19' W 001°01'4 4.3
2017-Jun-24 19:02N 55°23' W 001°04'0 2.5
2017-Jun-24 19:01N 55°23' W 001°04'1 2.7
2017-Jun-24 18:28N 55°23' W 001°02'3 6.0
2017-Jun-24 18:00N 55°25' W 000°58'4 4.5
2017-Jun-24 17:13N 55°27' W 001°03'0 0.6
2017-Jun-24 17:00N 55°27' W 001°03'2 3.3
2017-Jun-24 16:30N 55°26' W 001°06'3 6.4
2017-Jun-24 16:00N 55°25' W 001°11'3 6.3
2017-Jun-24 15:30N 55°25' W 001°16'3 6.1
2017-Jun-24 15:00N 55°24' W 001°22'6 5.7
2017-Jun-24 13:58N 55°23' W 001°32'0 0.0
2017-Jun-24 13:28N 55°23' W 001°32'0 0.2
2017-Jun-24 12:55N 55°23' W 001°32'0 0.0
2017-Jun-24 12:25N 55°23' W 001°32'0 0.1
2017-Jun-24 11:55N 55°23' W 001°32'0 0.0
2017-Jun-24 11:28N 55°23' W 001°32'0 0.0
2017-Jun-24 10:58N 55°23' W 001°32'0 0.1
2017-Jun-24 10:25N 55°23' W 001°32'0 0.0
2017-Jun-24 09:58N 55°23' W 001°32'0 0.1
2017-Jun-24 09:25N 55°23' W 001°32'0 0.0
2017-Jun-24 08:58N 55°23' W 001°32'0 0.0
2017-Jun-24 08:19N 55°23' W 001°32'0 0.0
2017-Jun-24 07:58N 55°23' W 001°32'0 0.1
2017-Jun-24 07:25N 55°23' W 001°32'0 0.0
2017-Jun-24 06:55N 55°23' W 001°32'0 0.0
2017-Jun-24 06:28N 55°23' W 001°32'0 0.0
2017-Jun-24 05:58N 55°23' W 001°32'0 0.0
2017-Jun-24 05:28N 55°23' W 001°32'0 0.1
2017-Jun-24 04:58N 55°23' W 001°32'0 0.1
2017-Jun-24 04:25N 55°23' W 001°32'0 0.0
2017-Jun-24 03:58N 55°23' W 001°32'0 0.0
2017-Jun-24 03:28N 55°23' W 001°32'0 0.0
2017-Jun-24 02:55N 55°23' W 001°32'0 0.0
2017-Jun-24 02:25N 55°23' W 001°32'0 0.0
2017-Jun-24 01:55N 55°23' W 001°32'0 0.0
2017-Jun-24 01:25N 55°23' W 001°32'0 0.0
2017-Jun-24 00:58N 55°23' W 001°32'0 0.1
2017-Jun-24 00:28N 55°23' W 001°32'0 0.0
2017-Jun-23 23:58N 55°23' W 001°32'0 0.1
2017-Jun-23 23:28N 55°23' W 001°32'0 0.0
2017-Jun-23 22:55N 55°23' W 001°32'0 0.1
2017-Jun-23 22:28N 55°23' W 001°32'0 0.0
2017-Jun-23 21:58N 55°23' W 001°32'0 0.0
2017-Jun-23 21:25N 55°23' W 001°32'0 0.0
2017-Jun-23 20:55N 55°23' W 001°32'0 0.0
2017-Jun-23 20:25N 55°23' W 001°32'0 0.0
2017-Jun-23 19:55N 55°23' W 001°32'1 2.9
2017-Jun-23 19:30N 55°23' W 001°30'5 9.2
2017-Jun-23 19:00N 55°24' W 001°22'5 9.1
2017-Jun-23 18:30N 55°25' W 001°14'5 8.9
2017-Jun-23 18:00N 55°26' W 001°06'2 1.2
2017-Jun-23 15:59N 55°27' W 001°02'0 0.6
2017-Jun-23 15:29N 55°27' W 001°03'0 0.0
2017-Jun-23 15:00N 55°27' W 001°03'3 2.5
2017-Jun-23 13:59N 55°27' W 001°07'0 0.5
2017-Jun-23 13:29N 55°27' W 001°07'3 5.4
2017-Jun-23 12:56N 55°29' W 001°03'1 3.4
2017-Jun-23 12:30N 55°30' W 001°02'3 3.8
2017-Jun-23 11:41N 55°32' W 001°06'0 0.6
2017-Jun-23 11:24N 55°33' W 001°06'5 3.1
2017-Jun-23 09:49N 55°33' W 000°57'9 2.3
2017-Jun-23 05:59N 55°26' W 000°48'4 0.8
2017-Jun-23 00:35N 55°21' W 000°49'4 8.0
2017-Jun-23 00:09N 55°22' W 000°55'0 0.6
2017-Jun-22 23:58N 55°22' W 000°55'1 1.5
2017-Jun-22 23:30N 55°22' W 000°54'0 0.6
2017-Jun-22 23:00N 55°22' W 000°54'1 1.8
2017-Jun-22 22:21N 55°21' W 000°52'3 3.3
2017-Jun-22 21:28N 55°18' W 000°49'1 2.0
2017-Jun-22 20:44N 55°17' W 000°47'5 2.4
2017-Jun-22 18:47N 55°13' W 000°47'3 8.3
2017-Jun-22 18:25N 55°12' W 000°52'1 2.5
2017-Jun-22 17:53N 55°12' W 000°54'2 3.0
2017-Jun-22 17:15N 55°11' W 000°57'2 8.9
2017-Jun-22 17:00N 55°10' W 001°01'2 4.2
2017-Jun-22 16:30N 55°10' W 001°04'1 2.5
2017-Jun-22 15:58N 55°10' W 001°07'0 0.6
2017-Jun-22 15:30N 55°10' W 001°07'2 4.1
2017-Jun-22 15:00N 55°12' W 001°09'2 4.6
2017-Jun-22 14:29N 55°13' W 001°13'2 2.3
2017-Jun-22 13:30N 55°11' W 001°14'1 2.2
2017-Jun-22 13:00N 55°11' W 001°15'1 1.7
2017-Jun-22 12:30N 55°12' W 001°16'0 0.7
2017-Jun-22 12:00N 55°11' W 001°17'1 2.3
2017-Jun-22 11:30N 55°11' W 001°19'3 5.5
2017-Jun-22 11:00N 55°09' W 001°18'2 3.4
2017-Jun-22 10:30N 55°07' W 001°17'2 3.5
2017-Jun-22 10:00N 55°08' W 001°15'0 0.8
2017-Jun-22 09:30N 55°07' W 001°14'1 2.3
2017-Jun-22 09:00N 55°07' W 001°12'2 4.6
2017-Jun-22 08:30N 55°08' W 001°09'0 0.2
2017-Jun-22 07:57N 55°08' W 001°08'1 1.5
2017-Jun-22 07:30N 55°08' W 001°07'0 0.5
2017-Jun-22 06:58N 55°08' W 001°08'0 0.1
2017-Jun-22 06:30N 55°08' W 001°08'2 4.7
2017-Jun-22 06:00N 55°08' W 001°04'0 0.3
2017-Jun-22 05:30N 55°08' W 001°04'3 3.2
2017-Jun-22 04:39N 55°07' W 001°00'2 7.2
2017-Jun-22 04:23N 55°08' W 000°58'1 1.7
2017-Jun-22 03:51N 55°08' W 000°56'1 2.1
2017-Jun-22 03:30N 55°08' W 000°55'6 3.7
2017-Jun-22 02:00N 55°06' W 000°46'4 7.6
2017-Jun-22 01:30N 55°02' W 000°49'0 0.7
2017-Jun-22 00:56N 55°02' W 000°49'4 7.2
2017-Jun-22 00:24N 55°04' W 000°55'0 0.6
2017-Jun-21 23:59N 55°04' W 000°55'1 1.5
2017-Jun-21 23:06N 55°05' W 000°55'2 5.0
2017-Jun-21 22:46N 55°05' W 000°58'0 0.6
2017-Jun-21 22:30N 55°05' W 000°58'2 4.5
2017-Jun-21 22:00N 55°03' W 001°01'3 1.7
2017-Jun-21 20:05N 55°06' W 001°04'1 8.0
2017-Jun-21 20:00N 55°05' W 001°05'1 1.5
2017-Jun-21 19:30N 55°04' W 001°06'1 1.6
2017-Jun-21 18:55N 55°04' W 001°07'1 3.3
2017-Jun-21 18:30N 55°05' W 001°09'1 1.4
2017-Jun-21 18:00N 55°05' W 001°11'2 4.4
2017-Jun-21 17:30N 55°04' W 001°14'1 1.6
2017-Jun-21 17:00N 55°03' W 001°15'1 1.9
2017-Jun-21 16:29N 55°02' W 001°15'0 0.1
2017-Jun-21 16:00N 55°02' W 001°15'2 4.2
2017-Jun-21 15:30N 54°60' W 001°15'0 0.4
2017-Jun-21 15:00N 54°60' W 001°15'1 2.9
2017-Jun-21 14:30N 54°60' W 001°12'1 1.3
2017-Jun-21 13:30N 55°01' W 001°11'1 2.9
2017-Jun-21 13:00N 55°02' W 001°09'2 4.4
2017-Jun-21 12:30N 55°02' W 001°06'0 0.9
2017-Jun-21 12:00N 55°01' W 001°05'3 5.2
2017-Jun-21 11:30N 54°60' W 001°01'1 2.5
2017-Jun-21 11:00N 55°00' W 000°60'1 1.6
2017-Jun-21 10:30N 55°01' W 000°58'3 5.1
2017-Jun-21 10:00N 54°59' W 000°57'0 0.5
2017-Jun-21 09:29N 54°59' W 000°57'1 1.0
2017-Jun-21 08:52N 54°59' W 000°56'3 8.1
2017-Jun-21 08:30N 54°58' W 000°52'0 0.8
2017-Jun-21 07:58N 54°58' W 000°51'3 7.5
2017-Jun-21 07:30N 54°57' W 000°57'0 0.5
2017-Jun-21 06:54N 54°57' W 000°57'1 2.8
2017-Jun-21 06:30N 54°56' W 000°59'1 1.0
2017-Jun-21 06:00N 54°56' W 000°59'1 2.4
2017-Jun-21 05:29N 54°56' W 001°01'2 3.4
2017-Jun-21 05:00N 54°57' W 001°04'1 2.1
2017-Jun-21 04:30N 54°58' W 001°05'2 3.1
2017-Jun-21 04:00N 54°58' W 001°07'1 2.7
2017-Jun-21 03:30N 54°57' W 001°09'2 3.1
2017-Jun-21 03:00N 54°59' W 001°09'0 0.1
2017-Jun-21 02:30N 54°59' W 001°09'1 2.8
2017-Jun-21 02:00N 54°58' W 001°11'1 2.3
2017-Jun-21 01:30N 54°58' W 001°13'1 1.8
2017-Jun-21 01:00N 54°59' W 001°13'0 0.8
2017-Jun-21 00:30N 54°58' W 001°13'1 2.3
2017-Jun-21 00:00N 54°58' W 001°15'2 3.6
2017-Jun-20 23:30N 54°57' W 001°14'0 0.9
2017-Jun-20 23:00N 54°56' W 001°14'2 3.1
2017-Jun-20 22:30N 54°56' W 001°12'0 0.9
2017-Jun-20 22:00N 54°56' W 001°11'1 2.8
2017-Jun-20 21:30N 54°54' W 001°12'2 3.1
2017-Jun-20 21:00N 54°55' W 001°14'1 2.1
2017-Jun-20 20:30N 54°54' W 001°14'2 3.5
2017-Jun-20 20:00N 54°52' W 001°13'2 3.5
2017-Jun-20 19:30N 54°52' W 001°10'0 0.4
2017-Jun-20 19:00N 54°52' W 001°10'0 0.2
2017-Jun-20 18:30N 54°52' W 001°10'1 2.5
2017-Jun-20 18:00N 54°53' W 001°09'3 5.8
2017-Jun-20 17:30N 54°52' W 001°04'1 1.2
2017-Jun-20 17:00N 54°53' W 001°03'2 1.6
2017-Jun-20 15:50N 54°54' W 001°00'2 5.6
2017-Jun-20 15:30N 54°53' W 000°57'2 2.8
2017-Jun-20 14:54N 54°55' W 000°56'0 0.5
2017-Jun-20 14:30N 54°55' W 000°56'2 2.3
2017-Jun-20 13:30N 54°54' W 000°53'4 4.0
2017-Jun-20 12:37N 54°51' W 000°57'1 7.2
2017-Jun-20 12:30N 54°51' W 000°58'3 5.7
2017-Jun-20 12:00N 54°50' W 001°03'1 2.9
2017-Jun-20 11:30N 54°51' W 001°05'0 0.7
2017-Jun-20 11:00N 54°50' W 001°06'2 5.0
2017-Jun-20 10:30N 54°50' W 001°10'1 2.9
2017-Jun-20 10:00N 54°50' W 001°12'1 1.1
2017-Jun-20 09:30N 54°50' W 001°12'3 5.7
2017-Jun-20 09:00N 54°49' W 001°08'1 1.7
2017-Jun-20 08:30N 54°49' W 001°09'1 1.6
2017-Jun-20 08:00N 54°48' W 001°10'2 3.5
2017-Jun-20 07:30N 54°47' W 001°09'1 1.6
2017-Jun-20 06:59N 54°47' W 001°08'1 1.9
2017-Jun-20 06:30N 54°47' W 001°06'3 4.2
2017-Jun-20 05:44N 54°48' W 001°01'1 5.6
2017-Jun-20 05:30N 54°47' W 001°02'0 0.1
2017-Jun-20 04:59N 54°47' W 001°02'4 7.2
2017-Jun-20 04:28N 54°48' W 000°55'3 3.6
2017-Jun-20 03:39N 54°50' W 000°51'0 0.5
2017-Jun-20 03:12N 54°49' W 000°51'1 5.6
2017-Jun-20 03:00N 54°48' W 000°50'2 3.3
2017-Jun-20 02:30N 54°47' W 000°49'2 4.6
2017-Jun-20 01:59N 54°47' W 000°53'3 6.1
2017-Jun-20 01:30N 54°46' W 000°58'1 1.4
2017-Jun-20 01:00N 54°46' W 000°59'2 3.8
2017-Jun-20 00:30N 54°46' W 001°02'2 4.0
2017-Jun-20 00:00N 54°46' W 001°06'0 0.6
2017-Jun-19 23:30N 54°45' W 001°06'1 2.7
2017-Jun-19 23:00N 54°44' W 001°06'1 1.0
2017-Jun-19 22:23N 54°44' W 001°05'1 3.1
2017-Jun-19 22:00N 54°44' W 001°03'0 0.3
2017-Jun-19 21:30N 54°44' W 001°03'3 4.6
2017-Jun-19 20:52N 54°44' W 000°58'0 0.5
2017-Jun-19 20:28N 54°44' W 000°58'1 1.1
2017-Jun-19 20:00N 54°44' W 000°57'1911.7
2017-Jun-19 18:25N 54°33' W 000°31'512.8
2017-Jun-19 18:00N 54°30' W 000°24'612.9
2017-Jun-19 17:30N 54°25' W 000°16'612.7
2017-Jun-19 17:00N 54°21' W 000°08'612.4
2017-Jun-19 16:30N 54°16' W 000°01'612.7
2017-Jun-19 16:00N 54°12' E 000°07'612.3
2017-Jun-19 15:30N 54°07' E 000°14'612.0
2017-Jun-19 15:00N 54°03' E 000°22'611.7
2017-Jun-19 14:30N 53°59' E 000°29'3210.8
2017-Jun-19 11:35N 53°32' E 000°57'410.9
2017-Jun-19 11:15N 53°29' E 001°00'311.0
2017-Jun-19 10:59N 53°27' E 001°03'1211.7
2017-Jun-19 09:58N 53°16' E 001°13'612.4
2017-Jun-19 09:27N 53°11' E 001°19'612.9
2017-Jun-19 09:00N 53°06' E 001°24'712.9
2017-Jun-19 08:30N 53°00' E 001°29'713.3
2017-Jun-19 08:00N 52°55' E 001°35'713.0
2017-Jun-19 07:30N 52°49' E 001°40'612.6
2017-Jun-19 07:00N 52°44' E 001°46'611.9
2017-Jun-19 06:30N 52°38' E 001°46'510.6
2017-Jun-19 06:00N 52°32' E 001°46'4 8.4
2017-Jun-19 05:30N 52°28' E 001°46'1 1.2
2017-Jun-19 04:59N 52°28' E 001°45'0 0.0
2017-Jun-19 04:29N 52°28' E 001°45'0 0.0
2017-Jun-19 03:38N 52°28' E 001°45'0 0.0
2017-Jun-19 03:29N 52°28' E 001°45'0 0.0
2017-Jun-18 19:54N 52°28' E 001°45'0 0.0
2017-Jun-18 11:29N 52°28' E 001°45'  

Dump ship's entire track history